Aérodrome :







RETROUVEZ-NOUS SUR...

 
LOGIN :

S'inscrire | Disclaimer

   EN    FR    IT 

 









Légende :    VFR   VFR Marginal   IFR   IFR Intensif   IFR Très Intensif
Visi : 
Plafond : 
>= 8 km
>= 3000ft
5 à 8 km
1000 à 3000 ft
1500m à 5 km
500 à 1000 ft
800 à 1500m
200 à 500 ft
< 800m
< 200 ft
Symboles :   Orages  Brouillard  Fortes neiges  Fortes précipitations  Vent > 20 kt






- Altitude de l'aérodrome : 76 ft
- Code IATA : PWM


KPWM - Portland International Jetport

DERNIER METAR :
  • 210051Z 00000KT 10SM CLR M09/M17 A3024 RMK AO2 SLP240 T10891172

METARs EXPIRÉS :
  • 202351Z 00000KT 10SM CLR M08/M17 A3022 RMK AO2 SLP234 T10781172 11028 21083 51016
  • 202251Z 35003KT 10SM CLR M05/M19 A3020 RMK AO2 SLP229 T10501194

TAF KPWM
Valide du 21 à 00h jusqu'au 22 à 00h UTC


202320Z 2100/2124 32004KT P6SM SKC



MET'MAP, la Météo Aéronautique d'un coup d'oeil ! - Copyright ORBIFLY Décembre 2007 - Disclaimer

ORBIFLY MET'MAP TEAM :

Programmation & Développement : Alexandra Zaïnal
Sur une idée originale de : Baudouin d'Aumeries
Assistance à la programmation : Marc-Olivier Méhu
Soutien technique & logistique : Manuel Goepfert

Contact : metmap@orbifly.com




SOURCES & CREDITS :

   NOAA